createdAt,value
2018-06-04T00:00:51.790Z,20.50
2018-06-04T00:03:22.438Z,18.67
2018-06-04T00:05:53.704Z,18.80
2018-06-04T00:08:24.332Z,18.30
2018-06-04T00:10:56.098Z,18.67
2018-06-04T00:13:26.811Z,21.53
2018-06-04T00:15:57.537Z,18.87
2018-06-04T00:18:28.321Z,19.60
2018-06-04T00:20:59.001Z,25.40
2018-06-04T00:23:29.634Z,19.83
2018-06-04T00:26:00.342Z,22.03
2018-06-04T00:28:31.050Z,20.47
2018-06-04T00:31:01.729Z,20.10
2018-06-04T00:33:31.921Z,20.10
2018-06-04T00:36:02.815Z,24.70
2018-06-04T00:38:33.474Z,25.87
2018-06-04T00:41:04.307Z,21.40
2018-06-04T00:43:35.045Z,28.87
2018-06-04T00:46:06.027Z,23.67
2018-06-04T00:48:36.718Z,26.30
2018-06-04T00:51:07.448Z,24.97
2018-06-04T00:53:38.179Z,22.73
2018-06-04T00:56:22.143Z,23.63
2018-06-04T00:58:52.817Z,23.53
2018-06-04T01:01:23.838Z,21.93
2018-06-04T01:03:54.410Z,24.63
2018-06-04T01:06:25.374Z,24.70
2018-06-04T01:08:55.917Z,24.50
2018-06-04T01:11:26.478Z,23.53
2018-06-04T01:13:57.206Z,23.83
2018-06-04T01:16:27.929Z,28.37
2018-06-04T01:18:58.672Z,21.23
2018-06-04T01:21:29.304Z,25.97
2018-06-04T01:23:59.918Z,21.63
2018-06-04T01:26:30.569Z,27.23
2018-06-04T01:29:01.250Z,22.83
2018-06-04T01:31:32.070Z,28.30
2018-06-04T01:34:02.778Z,25.53
2018-06-04T01:36:33.505Z,21.97
2018-06-04T01:39:03.981Z,24.43
2018-06-04T01:41:34.874Z,22.53
2018-06-04T01:44:05.745Z,25.57
2018-06-04T01:46:36.803Z,20.83
2018-06-04T01:49:07.429Z,22.93
2018-06-04T01:51:38.190Z,24.43
2018-06-04T01:54:08.714Z,23.70
2018-06-04T01:56:39.431Z,26.73
2018-06-04T01:59:10.037Z,20.90
2018-06-04T02:01:41.058Z,26.33
2018-06-04T02:04:11.638Z,24.70
2018-06-04T02:06:42.318Z,22.87
2018-06-04T02:09:12.925Z,27.73
2018-06-04T02:11:43.214Z,23.43
2018-06-04T02:14:13.841Z,23.93
2018-06-04T02:16:44.672Z,22.60
2018-06-04T02:19:15.369Z,24.47
2018-06-04T02:21:46.455Z,20.70
2018-06-04T02:24:17.138Z,27.93
2018-06-04T02:26:47.857Z,21.80
2018-06-04T02:29:18.553Z,22.47
2018-06-04T02:31:49.233Z,21.37
2018-06-04T02:34:19.916Z,23.77
2018-06-04T02:36:50.577Z,24.50
2018-06-04T02:39:21.282Z,30.47
2018-06-04T02:41:52.098Z,25.57
2018-06-04T02:44:22.756Z,22.60
2018-06-04T02:46:53.565Z,24.07
2018-06-04T02:49:24.209Z,27.70
2018-06-04T02:51:54.775Z,22.63
2018-06-04T02:54:25.539Z,23.77
2018-06-04T02:56:56.290Z,24.20
2018-06-04T02:59:26.954Z,23.40
2018-06-04T03:01:57.638Z,26.83
2018-06-04T03:04:27.817Z,29.00
2018-06-04T03:06:58.233Z,23.83
2018-06-04T03:09:28.856Z,29.87
2018-06-04T03:12:00.670Z,25.67
2018-06-04T03:14:31.399Z,24.17
2018-06-04T03:17:02.214Z,27.73
2018-06-04T03:19:32.216Z,25.83
2018-06-04T03:22:04.482Z,24.20
2018-06-04T03:24:35.234Z,24.87
2018-06-04T03:27:06.299Z,27.77
2018-06-04T03:29:36.981Z,24.20
2018-06-04T03:32:07.742Z,26.47
2018-06-04T03:34:38.444Z,26.77
2018-06-04T03:37:09.270Z,26.00
2018-06-04T03:39:39.971Z,25.70
2018-06-04T03:42:10.701Z,22.47
2018-06-04T03:44:41.431Z,31.33
2018-06-04T03:47:12.360Z,30.40
2018-06-04T03:49:43.041Z,22.63
2018-06-04T03:52:14.090Z,21.80
2018-06-04T03:54:44.819Z,22.20
2018-06-04T03:57:16.110Z,28.80
2018-06-04T03:59:46.722Z,23.03
2018-06-04T04:02:17.474Z,23.53
2018-06-04T04:04:48.042Z,25.13
2018-06-04T04:07:18.669Z,27.37
2018-06-04T04:09:49.374Z,29.90
2018-06-04T04:12:20.109Z,27.87
2018-06-04T04:14:50.682Z,25.57
2018-06-04T04:17:21.372Z,27.53
2018-06-04T04:19:52.067Z,21.83
2018-06-04T04:22:23.218Z,23.80
2018-06-04T04:24:53.887Z,26.53
2018-06-04T04:27:24.869Z,31.53
2018-06-04T04:29:55.538Z,29.53
2018-06-04T04:32:26.374Z,29.43
2018-06-04T04:34:57.005Z,25.80
2018-06-04T04:37:27.770Z,25.20
2018-06-04T04:39:58.428Z,22.63
2018-06-04T04:42:29.275Z,22.97
2018-06-04T04:44:59.906Z,26.07
2018-06-04T04:47:30.738Z,23.03
2018-06-04T04:50:01.379Z,19.43
2018-06-04T04:52:32.050Z,24.40
2018-06-04T04:55:02.149Z,20.30
2018-06-04T04:57:32.754Z,23.30
2018-06-04T05:00:03.540Z,20.03
2018-06-04T05:02:34.574Z,22.20
2018-06-04T05:05:05.421Z,16.97
2018-06-04T05:07:36.154Z,18.23
2018-06-04T05:10:06.883Z,21.80
2018-06-04T05:12:37.345Z,16.70
2018-06-04T05:15:08.053Z,19.60
2018-06-04T05:17:38.914Z,22.77
2018-06-04T05:20:09.614Z,18.10
2018-06-04T05:22:41.686Z,21.20
2018-06-04T05:25:12.367Z,19.33
2018-06-04T05:27:43.257Z,19.10
2018-06-04T05:30:14.044Z,16.50
2018-06-04T05:32:44.806Z,15.63
2018-06-04T05:35:15.451Z,17.10
2018-06-04T05:37:46.190Z,17.30
2018-06-04T05:40:16.654Z,19.93
2018-06-04T05:42:47.473Z,15.33
2018-06-04T05:45:18.129Z,14.10
2018-06-04T05:47:48.813Z,16.27
2018-06-04T05:50:19.489Z,26.03
2018-06-04T05:52:50.271Z,21.70
2018-06-04T05:55:20.469Z,17.97
2018-06-04T05:57:51.110Z,19.73
2018-06-04T06:00:21.823Z,16.50
2018-06-04T06:02:52.629Z,25.90
2018-06-04T06:05:23.394Z,13.23
2018-06-04T06:07:54.262Z,22.33
2018-06-04T06:10:24.877Z,17.73
2018-06-04T06:12:55.686Z,17.63
2018-06-04T06:15:26.434Z,12.37
2018-06-04T06:17:57.196Z,13.37
2018-06-04T06:20:27.867Z,14.63
2018-06-04T06:22:59.070Z,23.13
2018-06-04T06:25:29.717Z,46.87
2018-06-04T06:28:00.406Z,22.03
2018-06-04T06:30:31.080Z,11.90
2018-06-04T06:33:02.175Z,11.93
2018-06-04T06:35:32.742Z,17.87
2018-06-04T06:38:04.682Z,26.43
2018-06-04T06:40:35.397Z,16.53
2018-06-04T06:43:06.190Z,15.63
2018-06-04T06:45:36.871Z,13.03
2018-06-04T06:48:07.806Z,17.60
2018-06-04T06:50:38.482Z,20.50
2018-06-04T06:53:08.745Z,17.10
2018-06-04T06:55:39.505Z,15.63
2018-06-04T06:58:10.577Z,11.87
2018-06-04T07:00:41.268Z,16.70
2018-06-04T07:03:11.866Z,13.33
2018-06-04T07:05:42.170Z,9.23
2018-06-04T07:08:13.138Z,11.27
2018-06-04T07:10:43.893Z,15.07
2018-06-04T07:13:15.510Z,15.93
2018-06-04T07:15:45.853Z,20.17
2018-06-04T07:18:16.591Z,13.23
2018-06-04T07:20:46.958Z,8.37
2018-06-04T07:23:17.234Z,16.53
2018-06-04T07:25:47.576Z,19.93
2018-06-04T07:28:17.841Z,8.63
2018-06-04T07:30:48.235Z,5.83
2018-06-04T07:33:18.514Z,7.93
2018-06-04T07:35:48.954Z,10.00
2018-06-04T07:38:19.225Z,7.13
2018-06-04T07:40:49.578Z,7.40
2018-06-04T07:43:19.847Z,7.53
2018-06-04T07:45:50.338Z,7.37
2018-06-04T07:48:20.605Z,11.10
2018-06-04T07:50:51.029Z,13.27
2018-06-04T07:53:21.302Z,13.53
2018-06-04T07:55:51.750Z,7.57
2018-06-04T07:58:22.513Z,7.93
2018-06-04T08:00:52.879Z,9.23
2018-06-04T08:03:23.130Z,14.00
2018-06-04T08:05:53.896Z,6.53
2018-06-04T08:08:24.154Z,7.57
2018-06-04T08:10:55.107Z,9.33
2018-06-04T08:13:25.490Z,7.92
2018-06-04T08:15:56.276Z,7.87
2018-06-04T08:18:26.941Z,6.30
2018-06-04T08:20:57.277Z,8.95
2018-06-04T08:23:27.839Z,6.87
2018-06-04T08:25:58.362Z,7.92
2018-06-04T08:28:28.696Z,3.65
2018-06-04T08:30:59.026Z,3.83
2018-06-04T08:33:29.305Z,6.05
2018-06-04T08:36:00.269Z,5.17
2018-06-04T08:38:30.991Z,5.55
2018-06-04T08:41:01.944Z,5.85
2018-06-04T08:43:32.378Z,4.12
2018-06-04T08:46:03.055Z,4.70
2018-06-04T08:48:33.597Z,7.85
2018-06-04T08:51:04.534Z,12.25
2018-06-04T08:53:35.168Z,7.97
2018-06-04T08:56:05.510Z,3.77
2018-06-04T08:58:35.871Z,9.25
2018-06-04T09:01:06.326Z,4.25
2018-06-04T09:03:36.631Z,5.33
2018-06-04T09:06:07.162Z,6.03
2018-06-04T09:08:37.517Z,6.35
2018-06-04T09:11:08.009Z,6.17
2018-06-04T09:13:38.729Z,3.55
2018-06-04T09:16:09.411Z,5.15
2018-06-04T09:18:40.100Z,4.58
2018-06-04T09:21:10.834Z,7.67
2018-06-04T09:23:41.573Z,4.25
2018-06-04T09:26:12.302Z,2.80
2018-06-04T09:28:43.342Z,3.27
2018-06-04T09:31:14.010Z,4.12
2018-06-04T09:33:45.051Z,2.85
2018-06-04T09:36:15.790Z,9.68
2018-06-04T09:38:46.221Z,4.72
2018-06-04T09:41:16.959Z,2.50
2018-06-04T09:43:47.517Z,2.98
2018-06-04T09:46:18.067Z,4.08
2018-06-04T09:48:49.111Z,5.78
2018-06-04T09:51:19.780Z,7.87
2018-06-04T09:53:50.481Z,5.67
2018-06-04T09:56:20.803Z,2.90
2018-06-04T09:58:51.683Z,4.22
2018-06-04T10:01:22.417Z,3.35
2018-06-04T10:03:52.974Z,3.08
2018-06-04T10:06:23.289Z,5.70
2018-06-04T10:08:53.610Z,9.93
2018-06-04T10:11:23.950Z,3.55
2018-06-04T10:13:54.539Z,4.42
2018-06-04T10:16:25.375Z,2.83
2018-06-04T10:18:56.385Z,16.12
2018-06-04T10:21:27.171Z,5.05
2018-06-04T10:23:58.171Z,4.85
2018-06-04T10:26:29.047Z,11.25
2018-06-04T10:28:59.615Z,2.55
2018-06-04T10:31:30.035Z,3.40
2018-06-04T10:34:00.512Z,6.33
2018-06-04T10:36:30.823Z,3.58
2018-06-04T10:39:01.335Z,4.25
2018-06-04T10:41:31.803Z,4.03
2018-06-04T10:44:02.887Z,3.72
2018-06-04T10:46:33.750Z,3.77
2018-06-04T10:49:04.623Z,9.50
2018-06-04T10:51:35.475Z,2.98
2018-06-04T10:54:06.387Z,7.92
2018-06-04T10:56:37.611Z,7.03
2018-06-04T10:59:56.001Z,2.67
2018-06-04T11:02:26.843Z,3.60
2018-06-04T11:04:57.869Z,2.67
2018-06-04T11:07:28.343Z,5.17
2018-06-04T11:09:59.283Z,4.67
2018-06-04T11:12:30.186Z,2.55
2018-06-04T11:15:01.235Z,2.25
2018-06-04T11:17:32.111Z,17.50
2018-06-04T11:20:02.963Z,3.42
2018-06-04T11:22:33.475Z,6.25
2018-06-04T11:25:04.733Z,6.92
2018-06-04T11:27:35.218Z,2.92
2018-06-04T11:30:06.532Z,10.08
2018-06-04T11:32:37.093Z,23.00
2018-06-04T11:35:08.623Z,9.00
2018-06-04T11:37:39.121Z,5.00
2018-06-04T11:40:09.682Z,3.30
2018-06-04T11:42:40.706Z,8.03
2018-06-04T11:45:11.728Z,10.15
2018-06-04T11:47:42.487Z,7.62
2018-06-04T11:50:13.216Z,21.73
2018-06-04T11:52:43.694Z,8.93
2018-06-04T11:55:14.646Z,6.15
2018-06-04T11:57:45.422Z,10.72
2018-06-04T12:00:16.114Z,6.28
2018-06-04T12:02:46.518Z,3.87
2018-06-04T12:05:17.017Z,2.42
2018-06-04T12:07:47.433Z,13.50
2018-06-04T12:10:18.014Z,19.70
2018-06-04T12:12:48.766Z,4.72
2018-06-04T12:15:19.425Z,7.72
2018-06-04T12:17:49.529Z,14.28
2018-06-04T12:20:20.550Z,2.70
2018-06-04T12:22:51.259Z,3.35
2018-06-04T12:25:22.158Z,2.20
2018-06-04T12:27:52.410Z,6.72
2018-06-04T12:30:23.366Z,11.73
2018-06-04T12:32:53.702Z,6.20
2018-06-04T12:35:24.308Z,9.75
2018-06-04T12:37:54.992Z,13.60
2018-06-04T12:40:25.602Z,4.12
2018-06-04T12:42:55.937Z,6.63
2018-06-04T12:45:28.408Z,7.83
2018-06-04T12:47:58.785Z,4.92
2018-06-04T12:50:29.097Z,6.63
2018-06-04T12:52:59.425Z,10.80
2018-06-04T12:55:29.760Z,4.47
2018-06-04T12:58:00.560Z,2.73
2018-06-04T13:00:30.928Z,4.75
2018-06-04T13:03:01.309Z,5.78
2018-06-04T13:05:31.722Z,4.70
2018-06-04T13:08:02.097Z,4.25
2018-06-04T13:10:32.421Z,5.40
2018-06-04T13:13:02.865Z,4.17
2018-06-04T13:15:33.339Z,1.85
2018-06-04T13:18:05.124Z,2.77
2018-06-04T13:20:36.689Z,4.10
2018-06-04T13:23:07.433Z,5.20
2018-06-04T13:25:38.009Z,2.35
2018-06-04T13:28:08.523Z,5.92
2018-06-04T13:30:38.936Z,7.92
2018-06-04T13:33:09.435Z,2.90
2018-06-04T13:35:39.800Z,3.60
2018-06-04T13:38:10.230Z,4.12
2018-06-04T13:40:40.598Z,2.40
2018-06-04T13:43:11.358Z,17.95
2018-06-04T13:45:44.310Z,8.65
2018-06-04T13:48:14.863Z,9.45
2018-06-04T13:50:45.249Z,17.85
2018-06-04T13:53:15.700Z,8.33
2018-06-04T13:55:46.547Z,4.17
2018-06-04T13:58:16.865Z,3.40
2018-06-04T14:00:47.625Z,14.53
2018-06-04T14:03:17.957Z,3.83
2018-06-04T14:05:48.398Z,4.37
2018-06-04T14:08:18.746Z,10.88
2018-06-04T14:10:49.123Z,2.98
2018-06-04T14:13:19.442Z,3.42
2018-06-04T14:15:49.888Z,4.62
2018-06-04T14:18:21.206Z,15.53
2018-06-04T14:20:51.683Z,2.08
2018-06-04T14:23:22.147Z,1.72
2018-06-04T14:25:52.786Z,2.92
2018-06-04T14:28:23.172Z,4.37
2018-06-04T14:30:53.796Z,8.70
2018-06-04T14:33:24.214Z,3.62
2018-06-04T14:35:54.982Z,8.38
2018-06-04T14:38:25.315Z,7.03
2018-06-04T14:40:56.478Z,5.70
2018-06-04T14:43:26.834Z,2.92
2018-06-04T14:45:58.442Z,3.55
2018-06-04T14:48:28.806Z,7.12
2018-06-04T14:50:59.561Z,4.15
2018-06-04T14:53:30.024Z,5.65
2018-06-04T14:56:00.698Z,7.00
2018-06-04T14:58:31.250Z,2.62
2018-06-04T15:01:01.675Z,8.33
2018-06-04T15:03:32.111Z,7.17
2018-06-04T15:06:02.786Z,7.08
2018-06-04T15:08:33.146Z,11.15
2018-06-04T15:11:03.637Z,21.93
2018-06-04T15:13:34.005Z,24.23
2018-06-04T15:16:04.685Z,14.30
2018-06-04T15:18:34.976Z,11.87
2018-06-04T15:21:05.538Z,9.43
2018-06-04T15:23:35.834Z,10.70
2018-06-04T15:26:06.215Z,16.53
2018-06-04T15:28:36.570Z,12.63
2018-06-04T15:31:07.446Z,7.73
2018-06-04T15:33:37.813Z,5.63
2018-06-04T15:36:08.217Z,5.77
2018-06-04T15:38:38.525Z,18.77
2018-06-04T15:41:08.909Z,9.00
2018-06-04T15:43:39.274Z,6.90
2018-06-04T15:46:10.067Z,10.47
2018-06-04T15:48:40.415Z,10.87
2018-06-04T15:51:11.288Z,9.97
2018-06-04T15:53:41.614Z,10.93
2018-06-04T15:56:12.229Z,10.80
2018-06-04T15:58:42.647Z,6.93
2018-06-04T16:01:13.033Z,13.03
2018-06-04T16:03:43.383Z,7.20
2018-06-04T16:06:13.785Z,3.93
2018-06-04T16:08:44.109Z,9.23
2018-06-04T16:11:14.674Z,9.87
2018-06-04T16:13:44.981Z,19.67
2018-06-04T16:16:15.381Z,5.20
2018-06-04T16:18:45.715Z,6.63
2018-06-04T16:21:16.111Z,6.97
2018-06-04T16:23:46.470Z,7.63
2018-06-04T16:26:17.091Z,6.87
2018-06-04T16:28:47.398Z,6.77
2018-06-04T16:31:17.841Z,8.93
2018-06-04T16:33:48.167Z,4.22
2018-06-04T16:36:18.791Z,2.90
2018-06-04T16:38:49.144Z,4.85
2018-06-04T16:41:19.905Z,5.75
2018-06-04T16:43:50.277Z,4.85
2018-06-04T16:46:20.713Z,9.88
2018-06-04T16:48:51.091Z,3.17
2018-06-04T16:51:22.181Z,6.03
2018-06-04T16:53:52.501Z,4.60
2018-06-04T16:56:23.233Z,6.28
2018-06-04T16:58:53.597Z,2.33
2018-06-04T17:01:24.292Z,6.73
2018-06-04T17:03:54.633Z,6.63
2018-06-04T17:06:25.181Z,9.90
2018-06-04T17:08:55.505Z,1.97
2018-06-04T17:11:25.858Z,2.13
2018-06-04T17:13:56.183Z,9.20
2018-06-04T17:16:26.647Z,5.30
2018-06-04T17:18:56.998Z,6.57
2018-06-04T17:21:27.310Z,6.37
2018-06-04T17:23:57.633Z,5.07
2018-06-04T17:26:28.954Z,8.37
2018-06-04T17:28:59.350Z,6.10
2018-06-04T17:31:29.705Z,2.70
2018-06-04T17:34:00.152Z,4.77
2018-06-04T17:36:30.449Z,3.40
2018-06-04T17:39:01.007Z,10.40
2018-06-04T17:41:31.306Z,7.07
2018-06-04T17:44:01.883Z,12.17
2018-06-04T17:46:31.760Z,8.67
2018-06-04T17:49:02.121Z,3.43
2018-06-04T17:51:32.629Z,14.77
2018-06-04T17:54:02.905Z,8.53
2018-06-04T17:56:33.202Z,13.43
2018-06-04T17:59:03.772Z,9.67
2018-06-04T18:01:34.108Z,8.10
2018-06-04T18:04:05.024Z,6.83
2018-06-04T18:06:35.326Z,8.90
2018-06-04T18:09:08.630Z,5.93
2018-06-04T18:11:39.069Z,6.93
2018-06-04T18:14:09.660Z,3.57
2018-06-04T18:16:39.945Z,7.10
2018-06-04T18:19:10.335Z,8.97
2018-06-04T18:21:40.658Z,12.17
2018-06-04T18:24:11.089Z,14.40
2018-06-04T18:26:41.601Z,10.57
2018-06-04T18:29:11.950Z,8.67
2018-06-04T18:31:42.245Z,11.13
2018-06-04T18:34:12.674Z,15.57
2018-06-04T18:36:42.949Z,15.83
2018-06-04T18:39:13.322Z,22.77
2018-06-04T18:41:43.654Z,17.37
2018-06-04T18:44:13.961Z,25.47
2018-06-04T18:46:44.402Z,10.27
2018-06-04T18:49:14.797Z,6.20
2018-06-04T18:51:45.139Z,5.87
2018-06-04T18:54:15.857Z,9.03
2018-06-04T18:56:46.145Z,6.87
2018-06-04T18:59:16.560Z,8.27
2018-06-04T19:01:46.955Z,9.83
2018-06-04T19:04:17.946Z,6.83
2018-06-04T19:06:48.677Z,7.23
2018-06-04T19:09:19.709Z,5.07
2018-06-04T19:11:50.402Z,9.53
2018-06-04T19:14:21.213Z,4.43
2018-06-04T19:16:51.920Z,7.90
2018-06-04T19:19:22.757Z,10.63
2018-06-04T19:21:53.041Z,6.07
2018-06-04T19:24:23.469Z,16.93
2018-06-04T19:26:53.827Z,5.47
2018-06-04T19:29:24.726Z,34.23
2018-06-04T19:31:55.055Z,57.07
2018-06-04T19:34:25.493Z,41.10
2018-06-04T19:36:55.834Z,29.97
2018-06-04T19:39:26.210Z,20.37
2018-06-04T19:41:56.494Z,21.67
2018-06-04T19:44:27.280Z,9.30
2018-06-04T19:46:58.158Z,2.83
2018-06-04T19:49:28.854Z,8.67
2018-06-04T19:51:59.574Z,3.80
2018-06-04T19:54:30.347Z,6.00
2018-06-04T19:57:01.046Z,2.73
2018-06-04T19:59:31.674Z,3.50
2018-06-04T20:02:02.367Z,2.40
2018-06-04T20:04:33.173Z,5.40
2018-06-04T20:07:03.819Z,3.37
2018-06-04T20:09:34.609Z,4.30
2018-06-04T20:12:05.153Z,2.70
2018-06-04T20:14:35.649Z,2.40
2018-06-04T20:17:06.245Z,3.03
2018-06-04T20:19:36.850Z,2.03
2018-06-04T20:22:07.485Z,2.60
2018-06-04T20:24:38.379Z,6.17
2018-06-04T20:27:08.912Z,5.20
2018-06-04T20:29:39.711Z,4.00
2018-06-04T20:32:10.339Z,4.00
2018-06-04T20:34:41.026Z,5.10
2018-06-04T20:37:11.755Z,2.53
2018-06-04T20:39:42.480Z,3.53
2018-06-04T20:42:13.186Z,1.97
2018-06-04T20:44:43.978Z,3.53
2018-06-04T20:47:14.741Z,5.10
2018-06-04T20:49:45.494Z,3.17
2018-06-04T20:52:16.358Z,3.83
2018-06-04T20:54:47.169Z,7.93
2018-06-04T20:57:17.926Z,5.57
2018-06-04T20:59:48.732Z,8.60
2018-06-04T21:02:19.006Z,4.77
2018-06-04T21:04:49.709Z,3.40
2018-06-04T21:07:20.229Z,7.43
2018-06-04T21:09:51.218Z,7.17
2018-06-04T21:12:21.857Z,7.03
2018-06-04T21:14:52.637Z,10.03
2018-06-04T21:17:23.338Z,11.50
2018-06-04T21:19:54.029Z,5.87
2018-06-04T21:22:24.366Z,6.30
2018-06-04T21:24:55.063Z,11.70
2018-06-04T21:27:25.449Z,8.17
2018-06-04T21:29:56.285Z,9.97
2018-06-04T21:32:26.913Z,9.10
2018-06-04T21:34:58.001Z,7.80
2018-06-04T21:37:28.694Z,12.73
2018-06-04T21:39:59.017Z,10.20
2018-06-04T21:42:29.468Z,9.23
2018-06-04T21:45:00.146Z,8.73
2018-06-04T21:47:31.161Z,8.67
2018-06-04T21:50:01.775Z,9.27
2018-06-04T21:52:32.506Z,12.87
2018-06-04T21:55:03.209Z,12.67
2018-06-04T21:57:33.910Z,9.30
2018-06-04T22:00:04.730Z,8.43
2018-06-04T22:02:35.521Z,8.20
2018-06-04T22:05:06.315Z,9.33
2018-06-04T22:07:36.863Z,10.80
2018-06-04T22:10:09.057Z,9.80
2018-06-04T22:12:39.835Z,8.47
2018-06-04T22:15:10.612Z,9.50
2018-06-04T22:17:41.311Z,7.87
2018-06-04T22:20:11.969Z,9.13
2018-06-04T22:22:42.772Z,9.77
2018-06-04T22:25:13.602Z,8.67
2018-06-04T22:27:44.333Z,8.63
2018-06-04T22:30:15.073Z,10.73
2018-06-04T22:32:45.780Z,10.37
2018-06-04T22:35:16.429Z,8.97
2018-06-04T22:37:47.178Z,8.40
2018-06-04T22:40:18.213Z,10.17
2018-06-04T22:42:48.941Z,8.90
2018-06-04T22:45:19.704Z,10.30
2018-06-04T22:47:50.369Z,10.03
2018-06-04T22:50:21.209Z,10.40
2018-06-04T22:52:51.842Z,9.97
2018-06-04T22:55:22.559Z,9.57
2018-06-04T22:57:53.196Z,10.73
2018-06-04T23:00:36.745Z,11.00
2018-06-04T23:03:07.308Z,9.27
2018-06-04T23:05:38.042Z,12.77
2018-06-04T23:08:08.656Z,10.33
2018-06-04T23:10:39.142Z,9.93
2018-06-04T23:13:09.781Z,10.03
2018-06-04T23:15:40.773Z,9.27
2018-06-04T23:18:11.364Z,8.93
2018-06-04T23:20:43.906Z,9.23
2018-06-04T23:23:14.448Z,10.40
2018-06-04T23:25:45.229Z,8.93
2018-06-04T23:28:15.901Z,13.03
2018-06-04T23:30:46.671Z,8.17
2018-06-04T23:33:17.385Z,8.17
2018-06-04T23:35:48.062Z,9.00
2018-06-04T23:38:18.160Z,8.47
2018-06-04T23:40:48.861Z,9.10
2018-06-04T23:43:19.669Z,9.40
2018-06-04T23:45:50.446Z,9.03
2018-06-04T23:48:21.134Z,9.03
2018-06-04T23:50:51.701Z,10.50
2018-06-04T23:53:22.592Z,14.07
2018-06-04T23:55:53.261Z,12.70
2018-06-04T23:58:24.006Z,8.80
